Time;durP1;ratioP1;P1;durP2;ratioP2;P2;SDS_P1;SDS_P2;PMS_P1;PMS_P2;Temp;Humidity;BMP_temperature;BMP_pressure;BME280_temperature;BME280_humidity;BME280_pressure;Samples;Min_cycle;Max_cycle;Signal;HPM_P1;HPM_P2
2022/01/16 00:04:41;;;;;;;0.40;0.30;;;;;;;;;;4989318;28;20050;-66
2022/01/16 00:07:11;;;;;;;0.68;0.40;;;;;;;;;;4993804;28;20062;-67
2022/01/16 00:09:41;;;;;;;1.15;0.40;;;;;;;;;;4941051;28;20478;-67
2022/01/16 00:12:14;;;;;;;0.80;0.30;;;;;;;;;;4901901;28;20054;-68
2022/01/16 00:14:44;;;;;;;1.27;0.40;;;;;;;;;;4951992;28;20051;-68
2022/01/16 00:17:15;;;;;;;2.25;0.73;;;;;;;;;;4969088;28;20065;-66
2022/01/16 00:19:45;;;;;;;1.25;0.40;;;;;;;;;;4973180;28;20066;-66
2022/01/16 00:22:16;;;;;;;3.60;0.52;;;;;;;;;;4920312;28;20096;-67
2022/01/16 00:24:46;;;;;;;3.17;0.45;;;;;;;;;;4958502;28;20502;-66
2022/01/16 00:27:18;;;;;;;1.33;0.40;;;;;;;;;;4957603;28;20062;-66
2022/01/16 00:29:48;;;;;;;2.88;0.32;;;;;;;;;;4990814;28;20084;-66
2022/01/16 00:32:19;;;;;;;2.10;0.32;;;;;;;;;;4989200;28;20132;-66
2022/01/16 00:34:49;;;;;;;0.75;0.35;;;;;;;;;;4993054;28;20042;-67
2022/01/16 00:37:19;;;;;;;0.88;0.30;;;;;;;;;;4990722;28;20454;-65
2022/01/16 00:39:50;;;;;;;1.70;0.38;;;;;;;;;;4993542;28;20426;-66
2022/01/16 00:42:20;;;;;;;0.50;0.43;;;;;;;;;;5019575;28;20053;-65
2022/01/16 00:44:50;;;;;;;1.25;1.05;;;;;;;;;;5061137;28;20059;-66
2022/01/16 00:47:20;;;;;;;1.42;0.30;;;;;;;;;;5033462;28;20072;-66
2022/01/16 00:49:51;;;;;;;0.50;0.32;;;;;;;;;;5051301;28;20512;-65
2022/01/16 00:52:21;;;;;;;1.42;0.50;;;;;;;;;;5071220;28;20530;-65
2022/01/16 00:54:51;;;;;;;1.92;0.40;;;;;;;;;;5093050;28;20055;-64
2022/01/16 00:57:22;;;;;;;4.18;0.50;;;;;;;;;;5075320;28;20051;-64
2022/01/16 00:59:53;;;;;;;2.38;0.50;;;;;;;;;;5057423;28;20048;-66
2022/01/16 01:02:24;;;;;;;1.23;0.35;;;;;;;;;;5094469;28;20043;-64
2022/01/16 01:04:54;;;;;;;1.20;0.45;;;;;;;;;;5090255;28;20055;-64
2022/01/16 01:07:28;;;;;;;1.77;0.57;;;;;;;;;;5090532;28;20067;-65
2022/01/16 01:10:19;;;;;;;2.78;0.52;;;;;;;;;;5090187;28;20044;-64
2022/01/16 01:12:54;;;;;;;2.85;0.90;;;;;;;;;;5090267;28;20151;-65
2022/01/16 01:15:30;;;;;;;1.83;0.57;;;;;;;;;;5058725;28;20063;-65
2022/01/16 01:18:01;;;;;;;1.17;0.68;;;;;;;;;;5050016;28;20064;-65
2022/01/16 01:20:32;;;;;;;1.35;0.68;;;;;;;;;;5016890;28;20064;-65
2022/01/16 01:23:02;;;;;;;1.52;0.55;;;;;;;;;;5033273;28;20103;-65
2022/01/16 01:25:33;;;;;;;1.08;0.80;;;;;;;;;;5049470;28;20053;-64
2022/01/16 01:28:04;;;;;;;0.77;0.40;;;;;;;;;;5049967;28;20057;-65
2022/01/16 01:30:37;;;;;;;1.13;0.57;;;;;;;;;;5033058;28;20096;-65
2022/01/16 01:33:08;;;;;;;1.17;0.93;;;;;;;;;;4993554;28;20116;-65
2022/01/16 01:35:39;;;;;;;1.63;0.43;;;;;;;;;;5010069;28;20081;-65
2022/01/16 01:38:11;;;;;;;0.60;0.40;;;;;;;;;;5010035;28;20506;-65
2022/01/16 01:40:42;;;;;;;2.58;0.68;;;;;;;;;;4990050;28;20562;-65
2022/01/16 01:51:36;;;;;;;1.70;0.50;;;;;;;;;;5009720;28;20105;-64
2022/01/16 01:54:06;;;;;;;1.45;0.43;;;;;;;;;;5009674;28;20053;-64
2022/01/16 01:56:37;;;;;;;3.60;0.50;;;;;;;;;;5047379;28;20053;-65
2022/01/16 01:59:08;;;;;;;3.63;0.50;;;;;;;;;;5048993;28;20060;-64
2022/01/16 02:01:39;;;;;;;2.20;0.52;;;;;;;;;;4973782;28;20050;-65
2022/01/16 02:04:09;;;;;;;1.55;0.70;;;;;;;;;;4924676;28;20055;-64
2022/01/16 02:06:39;;;;;;;3.75;0.57;;;;;;;;;;4970682;28;20055;-67
2022/01/16 02:09:10;;;;;;;1.80;0.60;;;;;;;;;;4970353;28;20053;-64
2022/01/16 02:11:40;;;;;;;1.00;0.40;;;;;;;;;;4954900;28;20058;-66
2022/01/16 02:14:27;;;;;;;1.27;0.43;;;;;;;;;;4990020;28;20074;-66
2022/01/16 02:28:39;;;;;;;1.70;0.80;;;;;;;;;;5048904;28;20072;-68
2022/01/16 02:31:18;;;;;;;2.10;0.55;;;;;;;;;;4999578;28;20068;-67
2022/01/16 02:38:50;;;;;;;1.20;0.57;;;;;;;;;;5035075;28;19920;-65
2022/01/16 02:41:23;;;;;;;3.17;0.77;;;;;;;;;;5111677;28;20039;-64
2022/01/16 02:43:56;;;;;;;4.57;0.82;;;;;;;;;;5111580;28;20487;-63
2022/01/16 02:48:57;;;;;;;1.30;0.73;;;;;;;;;;5111801;28;20047;-64
2022/01/16 02:51:29;;;;;;;1.00;0.65;;;;;;;;;;5092607;28;20048;-66
2022/01/16 02:54:01;;;;;;;;;;;;;;;;;;5111998;28;20040;-65
2022/01/16 02:56:35;;;;;;;4.28;1.15;;;;;;;;;;5112059;28;20363;-65
2022/01/16 02:59:07;;;;;;;3.13;0.82;;;;;;;;;;5115664;28;20047;-64
2022/01/16 03:01:38;;;;;;;2.92;0.63;;;;;;;;;;5110434;28;20040;-64
2022/01/16 03:04:09;;;;;;;0.90;0.43;;;;;;;;;;5044926;28;20052;-67
2022/01/16 03:06:40;;;;;;;2.30;0.60;;;;;;;;;;5010607;28;20554;-63
2022/01/16 03:09:10;;;;;;;2.80;0.43;;;;;;;;;;5095262;28;20047;-67
2022/01/16 03:11:48;;;;;;;2.25;0.73;;;;;;;;;;5060122;28;20067;-67
2022/01/16 03:14:22;;;;;;;4.00;0.73;;;;;;;;;;5094881;28;20048;-67
2022/01/16 03:16:53;;;;;;;3.20;0.73;;;;;;;;;;5032281;28;20061;-65
2022/01/16 03:22:12;;;;;;;1.40;0.60;;;;;;;;;;5032834;28;20069;-64
2022/01/16 03:24:45;;;;;;;2.53;0.60;;;;;;;;;;5032125;28;20457;-65
2022/01/16 03:27:19;;;;;;;2.58;0.70;;;;;;;;;;5032435;28;20045;-65
2022/01/16 03:29:52;;;;;;;1.45;0.90;;;;;;;;;;4967348;28;20041;-66
2022/01/16 03:32:23;;;;;;;3.72;0.82;;;;;;;;;;4979685;28;20054;-64
2022/01/16 03:34:53;;;;;;;2.13;0.85;;;;;;;;;;4973138;28;20055;-64
2022/01/16 03:37:23;;;;;;;12.20;0.70;;;;;;;;;;4975704;28;20069;-64
2022/01/16 03:39:56;;;;;;;1.55;0.75;;;;;;;;;;4940444;28;20062;-64
2022/01/16 03:42:30;;;;;;;1.45;0.65;;;;;;;;;;4973042;28;20062;-64
2022/01/16 03:45:01;;;;;;;3.92;0.73;;;;;;;;;;4973052;28;20059;-64
2022/01/16 03:47:32;;;;;;;1.30;0.55;;;;;;;;;;4973142;28;20499;-64
2022/01/16 03:50:04;;;;;;;2.70;0.55;;;;;;;;;;4957210;28;20059;-65
2022/01/16 03:52:34;;;;;;;3.90;0.80;;;;;;;;;;4925112;28;20058;-65
2022/01/16 03:55:07;;;;;;;1.90;0.68;;;;;;;;;;5002291;28;20061;-64
2022/01/16 03:57:38;;;;;;;2.13;0.63;;;;;;;;;;4963297;28;20204;-65
2022/01/16 04:00:09;;;;;;;1.70;0.73;;;;;;;;;;5011756;28;20062;-64
2022/01/16 04:02:39;;;;;;;2.45;0.63;;;;;;;;;;5012635;28;20065;-66
2022/01/16 04:05:09;;;;;;;1.17;0.52;;;;;;;;;;5014847;28;20090;-66
2022/01/16 04:07:40;;;;;;;0.75;0.68;;;;;;;;;;5031389;28;20508;-65
2022/01/16 04:10:11;;;;;;;1.70;0.75;;;;;;;;;;5020237;28;20059;-65
2022/01/16 04:12:44;;;;;;;2.53;0.63;;;;;;;;;;5071549;28;20048;-64
2022/01/16 04:17:45;;;;;;;1.42;0.57;;;;;;;;;;5038543;28;20508;-65
2022/01/16 04:20:16;;;;;;;1.75;0.65;;;;;;;;;;5054654;28;20445;-66
2022/01/16 04:22:47;;;;;;;0.98;0.57;;;;;;;;;;5031181;28;20062;-64
2022/01/16 04:25:18;;;;;;;3.03;0.52;;;;;;;;;;5014862;28;20058;-64
2022/01/16 04:27:49;;;;;;;1.30;0.57;;;;;;;;;;5034351;28;20049;-66
2022/01/16 04:30:19;;;;;;;1.45;0.43;;;;;;;;;;5051135;28;20049;-66
2022/01/16 04:32:50;;;;;;;1.45;0.52;;;;;;;;;;5011213;28;20050;-65
2022/01/16 04:35:20;;;;;;;2.28;0.60;;;;;;;;;;5011242;28;20453;-65
2022/01/16 04:37:51;;;;;;;1.10;0.75;;;;;;;;;;4962613;28;20061;-65
2022/01/16 04:40:43;;;;;;;1.20;0.60;;;;;;;;;;5010918;28;20058;-68
2022/01/16 04:46:03;;;;;;;2.70;0.75;;;;;;;;;;5010958;28;20050;-64
2022/01/16 04:48:33;;;;;;;1.08;0.55;;;;;;;;;;4994485;28;20529;-65
2022/01/16 04:51:04;;;;;;;1.92;0.70;;;;;;;;;;5010513;28;20062;-68
2022/01/16 04:53:34;;;;;;;1.35;0.40;;;;;;;;;;4978073;28;20065;-68
2022/01/16 04:56:05;;;;;;;8.60;0.70;;;;;;;;;;4961999;28;20060;-65
2022/01/16 04:58:37;;;;;;;1.33;0.90;;;;;;;;;;4994848;28;20058;-66
2022/01/16 05:01:09;;;;;;;2.85;0.60;;;;;;;;;;5042880;28;20049;-65
2022/01/16 05:03:39;;;;;;;;;;;;;;;;;;5051081;28;20072;-65
2022/01/16 05:06:10;;;;;;;1.08;0.47;;;;;;;;;;5050311;28;19921;-67
2022/01/16 05:08:41;;;;;;;1.13;0.43;;;;;;;;;;5001231;28;20045;-65
2022/01/16 05:11:13;;;;;;;3.08;0.45;;;;;;;;;;5068038;28;20056;-66
2022/01/16 05:19:08;;;;;;;2.67;0.47;;;;;;;;;;5072472;28;20044;-69
2022/01/16 05:21:40;;;;;;;0.80;0.32;;;;;;;;;;5070237;28;20041;-66
2022/01/16 05:24:11;;;;;;;0.90;0.60;;;;;;;;;;4989390;28;20057;-64
2022/01/16 05:26:44;;;;;;;1.15;0.43;;;;;;;;;;5053958;28;20059;-65
2022/01/16 05:29:15;;;;;;;2.08;0.73;;;;;;;;;;5072483;28;20048;-67
2022/01/16 05:31:45;;;;;;;0.55;0.38;;;;;;;;;;5076335;28;20052;-64
2022/01/16 05:34:18;;;;;;;2.58;0.43;;;;;;;;;;5092417;28;20047;-69
2022/01/16 05:36:48;;;;;;;1.00;0.47;;;;;;;;;;5092447;28;20043;-67
2022/01/16 05:39:19;;;;;;;0.70;0.50;;;;;;;;;;5073273;28;20060;-64
2022/01/16 05:41:49;;;;;;;2.38;0.50;;;;;;;;;;5092447;28;20047;-67
2022/01/16 05:44:20;;;;;;;3.72;0.70;;;;;;;;;;5092250;28;20032;-64
2022/01/16 05:46:49;;;;;;;2.80;0.55;;;;;;;;;;5091910;28;20047;-64
2022/01/16 05:49:20;;;;;;;1.65;0.60;;;;;;;;;;5092375;28;20071;-64
2022/01/16 05:51:51;;;;;;;1.77;0.60;;;;;;;;;;5040054;28;20048;-65
2022/01/16 05:54:21;;;;;;;1.45;0.45;;;;;;;;;;5091931;28;20395;-64
2022/01/16 05:56:51;;;;;;;1.98;0.50;;;;;;;;;;5091970;28;20048;-65
2022/01/16 05:59:22;;;;;;;1.52;0.60;;;;;;;;;;5049288;28;20056;-64
2022/01/16 06:01:54;;;;;;;2.45;0.52;;;;;;;;;;5049363;28;20539;-65
2022/01/16 06:04:25;;;;;;;1.40;0.65;;;;;;;;;;5016130;28;20053;-65
2022/01/16 06:06:55;;;;;;;1.05;0.50;;;;;;;;;;5049145;28;20552;-64
2022/01/16 06:09:26;;;;;;;1.38;0.52;;;;;;;;;;5049591;28;20053;-65
2022/01/16 06:11:57;;;;;;;1.35;0.50;;;;;;;;;;5049248;28;20428;-65
2022/01/16 06:14:28;;;;;;;1.30;0.55;;;;;;;;;;5016488;28;20057;-67
2022/01/16 06:16:58;;;;;;;1.40;0.52;;;;;;;;;;5049223;28;20060;-65
2022/01/16 06:19:28;;;;;;;1.70;0.50;;;;;;;;;;5049246;28;20116;-64
2022/01/16 06:21:58;;;;;;;0.70;0.45;;;;;;;;;;5049108;28;20057;-65
2022/01/16 06:24:29;;;;;;;2.42;0.70;;;;;;;;;;5049359;28;20116;-68
2022/01/16 06:27:00;;;;;;;3.13;0.73;;;;;;;;;;5049087;28;20068;-64
2022/01/16 06:29:30;;;;;;;0.80;0.50;;;;;;;;;;5048957;28;20057;-64
2022/01/16 06:32:01;;;;;;;1.85;0.50;;;;;;;;;;5028347;28;20068;-64
2022/01/16 06:34:32;;;;;;;7.88;0.82;;;;;;;;;;5029027;28;20064;-65
2022/01/16 06:37:02;;;;;;;2.50;0.43;;;;;;;;;;5028814;28;20053;-64
2022/01/16 06:39:33;;;;;;;0.95;0.43;;;;;;;;;;5029037;28;20045;-64
2022/01/16 06:42:03;;;;;;;1.98;0.43;;;;;;;;;;5028484;28;20053;-67
2022/01/16 06:44:43;;;;;;;1.02;0.73;;;;;;;;;;4969975;28;20058;-65
2022/01/16 06:47:14;;;;;;;1.40;0.55;;;;;;;;;;4950325;28;20062;-65
2022/01/16 06:49:44;;;;;;;1.63;0.68;;;;;;;;;;4950353;28;20055;-65
2022/01/16 06:52:14;;;;;;;1.38;0.52;;;;;;;;;;4950636;28;20063;-63
2022/01/16 06:54:44;;;;;;;2.65;0.63;;;;;;;;;;4951075;28;20059;-64
2022/01/16 06:57:16;;;;;;;1.95;0.70;;;;;;;;;;4950452;28;20068;-64
2022/01/16 06:59:47;;;;;;;1.30;0.50;;;;;;;;;;4966498;28;20058;-64
2022/01/16 07:02:18;;;;;;;2.45;0.60;;;;;;;;;;4931242;29;20059;-65
2022/01/16 07:04:48;;;;;;;2.35;0.77;;;;;;;;;;4931456;29;20432;-64
2022/01/16 07:07:20;;;;;;;1.08;0.52;;;;;;;;;;4946887;28;20063;-64
2022/01/16 07:09:50;;;;;;;3.25;0.73;;;;;;;;;;4942554;29;20066;-65
2022/01/16 07:12:20;;;;;;;1.33;0.80;;;;;;;;;;4934319;29;20420;-64
2022/01/16 07:14:53;;;;;;;1.60;0.70;;;;;;;;;;4918976;29;20056;-64
2022/01/16 07:17:24;;;;;;;2.40;0.70;;;;;;;;;;4950385;29;20055;-65
2022/01/16 07:19:54;;;;;;;1.10;0.43;;;;;;;;;;4950567;28;20055;-65
2022/01/16 07:22:24;;;;;;;2.03;0.63;;;;;;;;;;4950893;29;20060;-65
2022/01/16 07:24:54;;;;;;;1.70;0.70;;;;;;;;;;4991546;28;20061;-65
2022/01/16 07:27:25;;;;;;;1.38;0.65;;;;;;;;;;5028407;28;20061;-64
2022/01/16 07:29:55;;;;;;;1.60;0.68;;;;;;;;;;5008907;28;20056;-67
2022/01/16 07:32:27;;;;;;;2.03;0.80;;;;;;;;;;5008599;28;20082;-66
2022/01/16 07:34:58;;;;;;;1.58;0.47;;;;;;;;;;4988967;28;20054;-65
2022/01/16 07:37:28;;;;;;;0.90;0.60;;;;;;;;;;4989023;28;20085;-65
2022/01/16 07:39:58;;;;;;;2.17;0.50;;;;;;;;;;4973726;28;20057;-65
2022/01/16 07:42:29;;;;;;;1.15;0.65;;;;;;;;;;4992049;28;20062;-65
2022/01/16 07:44:59;;;;;;;2.63;0.73;;;;;;;;;;4995149;28;20050;-64
2022/01/16 07:47:35;;;;;;;3.55;0.75;;;;;;;;;;5012083;28;20061;-65
2022/01/16 07:50:07;;;;;;;5.75;0.75;;;;;;;;;;4947899;28;20053;-65
2022/01/16 07:52:50;;;;;;;1.35;0.50;;;;;;;;;;5012167;28;20058;-64
2022/01/16 07:55:24;;;;;;;2.65;0.80;;;;;;;;;;4995637;28;20529;-64
2022/01/16 07:57:56;;;;;;;1.88;0.75;;;;;;;;;;5011958;28;20077;-65
2022/01/16 08:00:33;;;;;;;1.50;0.65;;;;;;;;;;5012015;28;20072;-64
2022/01/16 08:03:04;;;;;;;4.35;0.70;;;;;;;;;;5011982;28;20523;-65
2022/01/16 08:05:35;;;;;;;2.13;0.63;;;;;;;;;;5011863;28;20054;-65
2022/01/16 08:08:06;;;;;;;5.85;0.52;;;;;;;;;;5011556;28;20054;-65
2022/01/16 08:10:36;;;;;;;4.10;0.80;;;;;;;;;;5022923;28;20450;-65
2022/01/16 08:13:06;;;;;;;2.15;0.70;;;;;;;;;;5081073;28;20059;-64
2022/01/16 08:15:38;;;;;;;3.25;0.60;;;;;;;;;;5031228;28;20413;-64
2022/01/16 08:18:08;;;;;;;2.05;0.65;;;;;;;;;;5031399;28;20062;-64
2022/01/16 08:20:38;;;;;;;1.65;0.75;;;;;;;;;;5031505;28;20057;-64
2022/01/16 08:23:09;;;;;;;1.92;0.90;;;;;;;;;;5031039;28;20399;-65
2022/01/16 08:25:39;;;;;;;0.85;0.63;;;;;;;;;;5031399;28;20049;-65
2022/01/16 08:28:10;;;;;;;0.88;0.50;;;;;;;;;;5031104;28;20486;-64
2022/01/16 08:30:40;;;;;;;4.97;0.80;;;;;;;;;;5015134;28;20429;-64
2022/01/16 08:33:10;;;;;;;2.30;0.73;;;;;;;;;;5030765;28;20064;-65
2022/01/16 08:35:41;;;;;;;1.80;0.70;;;;;;;;;;5031238;28;20052;-64
2022/01/16 08:38:12;;;;;;;3.95;0.68;;;;;;;;;;5014861;28;20529;-65
2022/01/16 08:40:42;;;;;;;3.80;0.80;;;;;;;;;;5031055;28;20061;-64
2022/01/16 08:43:12;;;;;;;1.05;0.70;;;;;;;;;;4962203;28;20046;-64
2022/01/16 08:45:43;;;;;;;1.30;0.60;;;;;;;;;;5011180;28;20058;-65
2022/01/16 08:48:13;;;;;;;1.40;0.60;;;;;;;;;;5010686;28;20083;-64
2022/01/16 08:50:43;;;;;;;1.52;0.40;;;;;;;;;;5011161;28;20046;-64
2022/01/16 08:53:14;;;;;;;2.95;0.60;;;;;;;;;;5015213;28;20124;-64
2022/01/16 08:55:45;;;;;;;3.50;0.63;;;;;;;;;;5050125;28;20045;-64
2022/01/16 08:58:16;;;;;;;2.53;0.63;;;;;;;;;;5001875;28;20057;-64
2022/01/16 09:00:47;;;;;;;4.78;0.73;;;;;;;;;;5050514;28;20056;-65
2022/01/16 09:03:22;;;;;;;2.28;0.70;;;;;;;;;;5050650;28;20037;-64
2022/01/16 09:05:54;;;;;;;1.48;0.63;;;;;;;;;;5034240;28;20049;-64
2022/01/16 09:08:27;;;;;;;3.38;0.50;;;;;;;;;;5050152;28;20405;-64
2022/01/16 09:10:58;;;;;;;1.67;1.00;;;;;;;;;;5030544;28;20061;-65
2022/01/16 09:13:28;;;;;;;2.13;0.60;;;;;;;;;;5030466;28;20061;-65
2022/01/16 09:15:58;;;;;;;3.78;0.98;;;;;;;;;;5030315;28;20548;-64
2022/01/16 09:18:29;;;;;;;1.23;0.63;;;;;;;;;;5030159;28;20049;-64
2022/01/16 09:21:01;;;;;;;1.15;0.70;;;;;;;;;;4983761;28;20048;-64
2022/01/16 09:23:34;;;;;;;1.98;0.82;;;;;;;;;;5039909;28;20065;-64
2022/01/16 09:26:04;;;;;;;1.70;0.80;;;;;;;;;;5039948;28;20425;-65
2022/01/16 09:28:34;;;;;;;1.13;0.60;;;;;;;;;;5035648;28;20053;-65
2022/01/16 09:31:05;;;;;;;1.98;0.63;;;;;;;;;;5038774;28;20047;-65
2022/01/16 09:33:35;;;;;;;1.25;0.70;;;;;;;;;;5008060;28;20092;-64
2022/01/16 09:36:09;;;;;;;1.05;0.50;;;;;;;;;;5035399;28;20065;-65
2022/01/16 09:38:39;;;;;;;2.17;0.60;;;;;;;;;;4993586;28;20576;-64
2022/01/16 09:41:10;;;;;;;4.70;1.33;;;;;;;;;;5019203;28;20061;-65
2022/01/16 09:43:40;;;;;;;2.33;0.88;;;;;;;;;;5015935;28;20061;-64
2022/01/16 09:46:11;;;;;;;2.70;0.70;;;;;;;;;;5026093;28;20041;-64
2022/01/16 09:48:43;;;;;;;1.85;0.52;;;;;;;;;;4995836;28;20061;-65
2022/01/16 09:51:14;;;;;;;4.88;0.82;;;;;;;;;;5029306;28;20188;-63
2022/01/16 09:53:50;;;;;;;4.43;0.82;;;;;;;;;;5029386;28;20045;-65
2022/01/16 09:56:20;;;;;;;2.25;1.10;;;;;;;;;;5029596;28;20527;-64
2022/01/16 09:58:51;;;;;;;4.60;1.02;;;;;;;;;;5009577;28;20061;-64
2022/01/16 10:01:22;;;;;;;2.35;1.02;;;;;;;;;;5009823;28;20062;-64
2022/01/16 10:03:52;;;;;;;1.90;0.80;;;;;;;;;;5009537;28;20054;-64
2022/01/16 10:06:24;;;;;;;2.38;1.00;;;;;;;;;;4977536;28;20706;-65
2022/01/16 10:08:55;;;;;;;6.13;1.35;;;;;;;;;;5009684;28;20058;-64
2022/01/16 10:11:39;;;;;;;3.05;1.05;;;;;;;;;;5009484;28;20387;-64
2022/01/16 10:14:36;;;;;;;1.70;0.50;;;;;;;;;;5009590;28;20409;-64
2022/01/16 10:17:12;;;;;;;1.52;0.43;;;;;;;;;;5005831;28;20050;-63
2022/01/16 10:19:43;;;;;;;1.73;0.90;;;;;;;;;;4945527;28;20057;-64
2022/01/16 10:22:15;;;;;;;3.30;0.88;;;;;;;;;;5009391;28;20426;-64
2022/01/16 10:24:45;;;;;;;1.48;0.73;;;;;;;;;;4930821;28;20065;-63
2022/01/16 10:27:19;;;;;;;1.23;0.52;;;;;;;;;;5009315;28;20101;-64
2022/01/16 10:29:57;;;;;;;1.70;0.85;;;;;;;;;;5009574;28;20060;-64
2022/01/16 10:32:28;;;;;;;;;;;;;;;;;;5009315;28;20057;-64
2022/01/16 10:35:19;;;;;;;;;;;;;;;;;;4961250;28;19921;-64
2022/01/16 10:37:56;;;;;;;3.92;1.00;;;;;;;;;;5015964;28;19929;-64
2022/01/16 10:40:36;;;;;;;2.20;0.75;;;;;;;;;;5009513;28;20525;-64
2022/01/16 10:43:13;;;;;;;1.88;0.57;;;;;;;;;;5001338;28;20092;-65
2022/01/16 10:45:45;;;;;;;1.00;0.68;;;;;;;;;;5025197;28;20044;-63
2022/01/16 10:48:21;;;;;;;3.15;0.75;;;;;;;;;;5028049;28;20049;-65
2022/01/16 10:50:52;;;;;;;1.20;0.63;;;;;;;;;;5027046;28;20056;-65
2022/01/16 10:53:28;;;;;;;4.22;0.80;;;;;;;;;;5024766;28;20057;-65
2022/01/16 10:56:02;;;;;;;1.55;0.65;;;;;;;;;;5040342;28;20052;-64
2022/01/16 10:58:36;;;;;;;2.58;0.63;;;;;;;;;;5062536;28;20052;-65
2022/01/16 11:01:16;;;;;;;1.83;0.52;;;;;;;;;;5042528;28;20056;-65
2022/01/16 11:03:53;;;;;;;3.17;0.73;;;;;;;;;;4966336;28;20041;-65
2022/01/16 11:06:28;;;;;;;2.42;0.98;;;;;;;;;;5006785;28;20053;-67
2022/01/16 11:09:03;;;;;;;0.90;0.52;;;;;;;;;;5008538;28;20053;-65
2022/01/16 11:11:33;;;;;;;4.13;0.90;;;;;;;;;;5031555;28;20544;-66
2022/01/16 11:14:06;;;;;;;1.60;0.75;;;;;;;;;;5042550;28;20191;-64
2022/01/16 11:16:37;;;;;;;2.30;0.63;;;;;;;;;;5038596;28;20524;-66
2022/01/16 11:19:09;;;;;;;2.25;0.73;;;;;;;;;;5002746;28;20532;-65
2022/01/16 11:21:43;;;;;;;1.88;0.68;;;;;;;;;;5016289;28;20049;-65
2022/01/16 11:24:35;;;;;;;1.98;0.75;;;;;;;;;;5005202;28;20060;-65
2022/01/16 11:27:06;;;;;;;1.10;0.52;;;;;;;;;;4999270;28;20045;-65
2022/01/16 11:29:37;;;;;;;1.20;0.57;;;;;;;;;;4993076;28;20528;-65
2022/01/16 11:32:09;;;;;;;1.63;1.02;;;;;;;;;;5038846;28;20154;-68
2022/01/16 11:34:40;;;;;;;5.72;1.13;;;;;;;;;;5009262;28;20073;-66
2022/01/16 11:37:11;;;;;;;2.47;0.75;;;;;;;;;;5046645;28;20041;-71
2022/01/16 11:39:42;;;;;;;2.30;0.65;;;;;;;;;;5036159;28;20071;-73
2022/01/16 11:42:23;;;;;;;2.30;0.93;;;;;;;;;;5035418;28;20051;-70
2022/01/16 11:44:54;;;;;;;1.40;0.77;;;;;;;;;;5051169;28;20053;-66
2022/01/16 11:47:24;;;;;;;2.78;0.82;;;;;;;;;;5071084;28;20044;-68
2022/01/16 11:50:07;;;;;;;2.63;1.13;;;;;;;;;;5093892;28;20049;-70
2022/01/16 11:52:43;;;;;;;5.10;1.08;;;;;;;;;;5093993;28;20511;-70
2022/01/16 11:55:13;;;;;;;8.15;0.95;;;;;;;;;;4986689;28;20056;-69
2022/01/16 11:57:57;;;;;;;2.38;0.93;;;;;;;;;;5051266;28;20604;-68
2022/01/16 12:00:43;;;;;;;3.72;1.08;;;;;;;;;;5020153;28;20421;-67
2022/01/16 12:03:35;;;;;;;1.77;0.73;;;;;;;;;;5011419;28;20050;-68
2022/01/16 12:06:30;;;;;;;3.22;0.77;;;;;;;;;;5003537;28;20050;-68
2022/01/16 12:09:04;;;;;;;3.15;0.90;;;;;;;;;;4985289;28;20046;-67
2022/01/16 12:11:37;;;;;;;2.40;0.95;;;;;;;;;;4964450;28;20085;-66
2022/01/16 12:14:07;;;;;;;3.25;0.90;;;;;;;;;;5024778;28;20060;-71
2022/01/16 12:16:43;;;;;;;6.65;0.70;;;;;;;;;;5018520;28;20057;-71
2022/01/16 12:19:41;;;;;;;2.13;0.90;;;;;;;;;;5004968;28;20049;-68
2022/01/16 12:22:14;;;;;;;3.28;1.13;;;;;;;;;;4979021;28;20049;-67
2022/01/16 12:25:03;;;;;;;3.33;1.17;;;;;;;;;;4949767;28;20085;-67
2022/01/16 12:27:47;;;;;;;5.97;1.13;;;;;;;;;;4982869;28;20046;-65
2022/01/16 12:30:26;;;;;;;5.28;0.93;;;;;;;;;;4970158;28;20560;-67
2022/01/16 12:33:10;;;;;;;2.47;0.95;;;;;;;;;;4977924;28;20066;-69
2022/01/16 12:35:55;;;;;;;4.47;1.25;;;;;;;;;;4984202;28;20047;-69
2022/01/16 12:38:30;;;;;;;1.58;0.90;;;;;;;;;;4993092;28;20046;-69
2022/01/16 12:41:27;;;;;;;4.10;1.10;;;;;;;;;;4999545;28;20422;-65
2022/01/16 12:44:02;;;;;;;3.78;1.10;;;;;;;;;;5009821;28;20054;-67
2022/01/16 12:46:32;;;;;;;4.25;1.00;;;;;;;;;;4977829;28;20054;-67
2022/01/16 12:49:13;;;;;;;5.50;0.95;;;;;;;;;;5010593;28;20090;-65
2022/01/16 12:51:48;;;;;;;3.38;1.00;;;;;;;;;;4994471;28;20057;-63
2022/01/16 12:54:27;;;;;;;4.43;1.45;;;;;;;;;;5009090;28;20057;-62
2022/01/16 12:57:02;;;;;;;11.75;1.85;;;;;;;;;;5008526;28;20046;-64
2022/01/16 12:59:43;;;;;;;3.35;0.95;;;;;;;;;;5046923;28;20052;-65
2022/01/16 13:02:13;;;;;;;1.80;0.90;;;;;;;;;;5070649;28;20061;-65
2022/01/16 13:04:46;;;;;;;10.60;3.85;;;;;;;;;;5070615;28;20463;-64
2022/01/16 13:07:37;;;;;;;16.98;12.23;;;;;;;;;;5050036;28;20057;-65
2022/01/16 13:10:07;;;;;;;3.58;2.30;;;;;;;;;;5050292;28;20053;-66
2022/01/16 13:12:38;;;;;;;5.05;2.15;;;;;;;;;;4985581;28;20509;-67
2022/01/16 13:15:09;;;;;;;4.13;1.40;;;;;;;;;;5050161;28;20057;-65
2022/01/16 13:17:39;;;;;;;2.65;0.95;;;;;;;;;;5017488;28;20072;-67
2022/01/16 13:20:15;;;;;;;3.88;1.02;;;;;;;;;;5050137;28;20060;-63
2022/01/16 13:22:45;;;;;;;2.72;1.10;;;;;;;;;;4972350;28;20064;-65
2022/01/16 13:25:17;;;;;;;1.83;1.23;;;;;;;;;;5050122;28;20072;-67
2022/01/16 13:27:48;;;;;;;3.60;0.95;;;;;;;;;;5033780;28;20460;-66
2022/01/16 13:30:24;;;;;;;2.78;1.02;;;;;;;;;;5029882;28;20060;-64
2022/01/16 13:33:07;;;;;;;4.18;1.08;;;;;;;;;;5029939;28;21143;-68
2022/01/16 13:35:40;;;;;;;2.08;1.10;;;;;;;;;;4981732;28;20519;-65
2022/01/16 13:38:15;;;;;;;2.22;1.02;;;;;;;;;;5029896;28;20053;-66
2022/01/16 13:40:47;;;;;;;4.28;1.38;;;;;;;;;;4996947;28;20061;-66
2022/01/16 13:43:18;;;;;;;3.17;0.88;;;;;;;;;;4973929;28;20054;-65
2022/01/16 13:45:49;;;;;;;5.93;1.13;;;;;;;;;;4975994;28;20055;-66
2022/01/16 13:48:28;;;;;;;5.35;1.50;;;;;;;;;;4971079;28;20058;-65
2022/01/16 13:51:01;;;;;;;2.55;0.93;;;;;;;;;;4955614;28;20511;-64
2022/01/16 13:53:42;;;;;;;8.30;1.20;;;;;;;;;;4970971;28;20391;-65
2022/01/16 13:56:24;;;;;;;3.95;1.27;;;;;;;;;;4970819;28;20518;-67
2022/01/16 13:58:57;;;;;;;2.90;1.50;;;;;;;;;;4970965;28;20057;-65
2022/01/16 14:01:31;;;;;;;4.75;1.52;;;;;;;;;;4951662;28;20073;-65
2022/01/16 14:04:12;;;;;;;5.00;1.30;;;;;;;;;;5013624;28;20124;-66
2022/01/16 14:06:49;;;;;;;3.80;1.40;;;;;;;;;;5029414;28;20049;-66
2022/01/16 14:09:24;;;;;;;5.35;1.00;;;;;;;;;;5029381;28;20046;-66
2022/01/16 14:11:55;;;;;;;1.98;0.93;;;;;;;;;;5012481;28;20049;-67
2022/01/16 14:14:28;;;;;;;1.85;1.13;;;;;;;;;;5012640;28;20057;-66
2022/01/16 14:17:41;;;;;;;3.05;1.33;;;;;;;;;;4996506;28;20509;-65
2022/01/16 14:20:24;;;;;;;3.13;0.93;;;;;;;;;;5016899;28;20057;-65
2022/01/16 14:23:07;;;;;;;2.63;0.73;;;;;;;;;;5055851;28;20056;-65
2022/01/16 14:25:41;;;;;;;2.38;1.00;;;;;;;;;;5071547;28;20407;-65
2022/01/16 14:28:13;;;;;;;4.22;2.03;;;;;;;;;;5071944;28;20049;-65
2022/01/16 14:30:43;;;;;;;10.23;2.03;;;;;;;;;;5071389;28;20040;-64
2022/01/16 14:33:15;;;;;;;1.92;0.80;;;;;;;;;;5069774;28;20056;-64
2022/01/16 14:35:50;;;;;;;4.07;1.83;;;;;;;;;;5068426;28;20044;-65
2022/01/16 14:38:21;;;;;;;3.70;1.13;;;;;;;;;;5068944;28;20055;-66
2022/01/16 14:40:51;;;;;;;3.20;0.90;;;;;;;;;;5068918;28;20056;-66
2022/01/16 14:43:22;;;;;;;1.95;1.15;;;;;;;;;;5052566;28;20048;-63
2022/01/16 14:45:57;;;;;;;2.25;0.93;;;;;;;;;;5069050;28;20060;-66
2022/01/16 14:48:27;;;;;;;4.45;1.08;;;;;;;;;;5028554;28;20053;-64
2022/01/16 14:50:57;;;;;;;3.72;1.55;;;;;;;;;;5029055;28;20057;-67
2022/01/16 14:53:27;;;;;;;4.68;1.30;;;;;;;;;;5030676;28;20068;-66
2022/01/16 14:55:58;;;;;;;5.05;1.95;;;;;;;;;;5033175;28;20548;-67
2022/01/16 14:58:29;;;;;;;2.75;0.95;;;;;;;;;;5032900;28;20041;-66
2022/01/16 15:01:00;;;;;;;3.80;1.30;;;;;;;;;;5000049;28;20056;-65
2022/01/16 15:03:30;;;;;;;3.10;0.85;;;;;;;;;;5032975;28;20045;-67
2022/01/16 15:06:06;;;;;;;3.38;0.73;;;;;;;;;;5032890;28;20073;-65
2022/01/16 15:08:41;;;;;;;2.00;0.77;;;;;;;;;;5032766;28;20052;-67
2022/01/16 15:11:14;;;;;;;3.08;0.80;;;;;;;;;;5000031;28;20057;-66
2022/01/16 15:13:45;;;;;;;1.45;0.80;;;;;;;;;;5016222;28;20060;-65
2022/01/16 15:16:23;;;;;;;3.83;0.63;;;;;;;;;;5032763;28;20493;-64
2022/01/16 15:18:57;;;;;;;3.65;0.85;;;;;;;;;;5015006;28;20053;-67
2022/01/16 15:21:36;;;;;;;3.55;0.80;;;;;;;;;;5012904;28;20045;-67
2022/01/16 15:24:07;;;;;;;2.42;0.93;;;;;;;;;;5012567;28;20050;-69
2022/01/16 15:26:37;;;;;;;3.78;1.27;;;;;;;;;;5058223;28;20060;-68
2022/01/16 15:29:08;;;;;;;1.90;0.95;;;;;;;;;;5039374;28;20060;-68
2022/01/16 15:31:40;;;;;;;3.80;0.80;;;;;;;;;;5074528;28;20064;-65
2022/01/16 15:34:10;;;;;;;4.00;0.93;;;;;;;;;;5074631;28;20040;-66
2022/01/16 15:36:45;;;;;;;1.52;0.73;;;;;;;;;;5039100;28;20056;-67
2022/01/16 15:39:15;;;;;;;2.72;0.73;;;;;;;;;;5074637;28;20055;-65
2022/01/16 15:41:45;;;;;;;1.88;0.68;;;;;;;;;;4999909;28;20054;-64
2022/01/16 15:44:16;;;;;;;1.35;0.82;;;;;;;;;;5031802;28;20424;-64
2022/01/16 15:46:46;;;;;;;2.03;0.75;;;;;;;;;;5031663;28;20045;-66
2022/01/16 15:49:16;;;;;;;8.13;0.80;;;;;;;;;;5031904;28;20497;-65
2022/01/16 15:51:46;;;;;;;6.43;0.98;;;;;;;;;;5015727;28;20386;-65
2022/01/16 15:54:23;;;;;;;3.80;0.73;;;;;;;;;;4999035;28;20436;-66
2022/01/16 15:56:53;;;;;;;0.80;0.80;;;;;;;;;;5031885;28;20053;-64
2022/01/16 15:59:23;;;;;;;1.92;0.80;;;;;;;;;;5011601;28;20409;-65
2022/01/16 16:01:53;;;;;;;2.63;1.02;;;;;;;;;;5011999;28;20053;-66